CheckWX is a tool to help pilots better visualize weather data.  It is not intended as a substitute for an official pre-flight weather briefing.

12:39:29 UTC

EFKS METAR
Kuusamo Airport
Kuusamo, Finland
Current

49 mins ago

EFKS 161150Z AUTO 30003KT 280V340 4400 2000 BR OVC002 01/01 Q1018
Observed
Oct-16 @ 11:50 UTC
Wind
  • 300° at 3 KTS
Visibility
4,400 meters
Flight Rules
LIFR
Conditions
Mist
Cloud Levels
  • Overcast at 200' AGL
Temperature
C / 34°F
Dewpoint
C / 34°F
Humidity
100%
Altimeter
30.06" Hg
Pressure
1017.92 hPa
Previous

1 hour ago

EFKS 161120Z 31004KT 280V340 1100 R12/1400D -DZ BR VV002 01/01 Q1018
Observed
Oct-16 @ 11:20 UTC
Wind
  • 310° at 4 KTS
Visibility
1,100 meters
Flight Rules
LIFR
Conditions
Light Drizzle, Mist
Cloud Levels
  • Vertical visibility at 200' AGL
Temperature
C / 34°F
Dewpoint
C / 34°F
Humidity
100%
Altimeter
30.06" Hg
Pressure
1017.92 hPa
Previous

2 hours ago

EFKS 161050Z 28003KT 1900 -DZ BR VV002 01/01 Q1018
Observed
Oct-16 @ 10:50 UTC
Wind
  • 280° at 3 KTS
Visibility
1,900 meters
Flight Rules
LIFR
Conditions
Light Drizzle, Mist
Cloud Levels
  • Vertical visibility at 200' AGL
Temperature
C / 34°F
Dewpoint
C / 34°F
Humidity
100%
Altimeter
30.06" Hg
Pressure
1017.92 hPa